Time;durP1;ratioP1;P1;durP2;ratioP2;P2;SDS_P1;SDS_P2;PMS_P1;PMS_P2;Temp;Humidity;BMP_temperature;BMP_pressure;BME280_temperature;BME280_humidity;BME280_pressure;Samples;Min_cycle;Max_cycle;Signal;HPM_P1;HPM_P2
2023/07/23 00:00:38;;;;;;;4.80;3.23;;;15.40;99.90;;;;;;5023303;28;20203;-81
2023/07/23 00:03:04;;;;;;;4.50;2.87;;;15.40;99.90;;;;;;5006728;28;20214;-82
2023/07/23 00:05:30;;;;;;;9.93;3.97;;;15.40;99.90;;;;;;5023217;28;20725;-82
2023/07/23 00:07:58;;;;;;;7.67;3.83;;;15.40;99.90;;;;;;5005739;28;20230;-82
2023/07/23 00:10:24;;;;;;;7.77;4.10;;;15.40;99.90;;;;;;5019442;28;20549;-81
2023/07/23 00:12:51;;;;;;;6.93;4.63;;;15.40;99.90;;;;;;5007266;28;20185;-82
2023/07/23 00:15:17;;;;;;;9.70;3.43;;;15.40;99.90;;;;;;5017174;28;20275;-81
2023/07/23 00:17:43;;;;;;;9.10;3.17;;;15.40;99.90;;;;;;5005900;28;20222;-82
2023/07/23 00:20:11;;;;;;;8.07;5.60;;;15.40;99.90;;;;;;5040215;28;20220;-83
2023/07/23 00:22:40;;;;;;;5.60;3.47;;;15.50;99.90;;;;;;5039717;28;20228;-82
2023/07/23 00:25:06;;;;;;;5.03;2.80;;;15.40;99.90;;;;;;5040542;28;20182;-82
2023/07/23 00:27:32;;;;;;;7.87;4.30;;;15.40;99.90;;;;;;5023219;28;20684;-82
2023/07/23 00:29:58;;;;;;;5.23;3.03;;;15.40;99.90;;;;;;5040525;28;20225;-81
2023/07/23 00:32:24;;;;;;;5.07;3.67;;;15.40;99.90;;;;;;5022084;28;20218;-84
2023/07/23 00:34:50;;;;;;;4.07;2.87;;;15.30;99.90;;;;;;5007041;28;20218;-82
2023/07/23 00:37:15;;;;;;;7.73;3.07;;;15.30;99.90;;;;;;5009217;28;20189;-81
2023/07/23 00:39:42;;;;;;;3.87;3.30;;;15.30;99.90;;;;;;5022555;28;20712;-82
2023/07/23 00:42:08;;;;;;;6.47;3.43;;;15.30;99.90;;;;;;5006206;28;20679;-82
2023/07/23 00:44:34;;;;;;;5.10;3.03;;;15.30;99.90;;;;;;5022318;28;20228;-81
2023/07/23 00:47:01;;;;;;;9.97;4.10;;;15.30;99.90;;;;;;5002779;28;20568;-82
2023/07/23 00:49:27;;;;;;;7.10;3.63;;;15.30;99.90;;;;;;5018194;28;20214;-81
2023/07/23 00:51:53;;;;;;;6.37;4.67;;;15.30;99.90;;;;;;5021589;28;20185;-81
2023/07/23 00:54:20;;;;;;;7.20;4.13;;;15.30;99.90;;;;;;5021816;28;20228;-81
2023/07/23 00:56:47;;;;;;;8.10;4.50;;;15.30;99.90;;;;;;5002300;28;20242;-81
2023/07/23 00:59:13;;;;;;;6.83;4.03;;;15.30;99.90;;;;;;5018522;28;20229;-82
2023/07/23 01:01:39;;;;;;;9.10;3.63;;;15.30;99.90;;;;;;4985719;28;20226;-82
2023/07/23 01:04:05;;;;;;;4.43;3.00;;;15.30;99.90;;;;;;5020794;28;20202;-81
2023/07/23 01:06:35;;;;;;;5.60;3.90;;;15.30;99.90;;;;;;4995828;28;20187;-82
2023/07/23 01:09:01;;;;;;;6.50;4.60;;;15.30;99.90;;;;;;5018632;28;20731;-82
2023/07/23 01:11:28;;;;;;;5.90;4.37;;;15.30;99.90;;;;;;5002745;28;20578;-82
2023/07/23 01:13:55;;;;;;;6.27;4.43;;;15.30;99.90;;;;;;5002591;28;20338;-81
2023/07/23 01:16:22;;;;;;;10.20;3.57;;;15.40;99.90;;;;;;5018695;28;20622;-82
2023/07/23 01:18:48;;;;;;;6.03;3.10;;;15.40;99.90;;;;;;5020665;28;20196;-82
2023/07/23 01:21:16;;;;;;;7.87;4.43;;;15.40;99.90;;;;;;5020032;28;20209;-81
2023/07/23 01:23:43;;;;;;;6.07;3.50;;;15.30;99.90;;;;;;5002160;28;20222;-81
2023/07/23 01:26:08;;;;;;;4.63;3.27;;;15.40;99.90;;;;;;5020370;28;20262;-81
2023/07/23 01:28:34;;;;;;;4.70;3.47;;;15.40;99.90;;;;;;5002093;28;20300;-81
2023/07/23 01:31:00;;;;;;;4.17;3.17;;;15.30;99.90;;;;;;5002307;28;20191;-82
2023/07/23 01:33:26;;;;;;;4.20;2.50;;;15.30;99.90;;;;;;5002965;28;20205;-82
2023/07/23 01:35:56;;;;;;;12.00;4.13;;;15.30;99.90;;;;;;4985401;28;20238;-81
2023/07/23 01:38:22;;;;;;;7.87;5.07;;;15.40;99.90;;;;;;5001362;28;20229;-81
2023/07/23 01:40:49;;;;;;;5.53;3.60;;;15.50;99.90;;;;;;5020008;28;20671;-81
2023/07/23 01:43:15;;;;;;;6.87;3.73;;;15.40;99.90;;;;;;5019823;28;20206;-82
2023/07/23 01:45:44;;;;;;;5.07;3.87;;;15.40;99.90;;;;;;5002852;28;20199;-81
2023/07/23 01:48:13;;;;;;;5.17;3.03;;;15.40;99.90;;;;;;5000980;28;20230;-81
2023/07/23 01:50:40;;;;;;;9.27;4.07;;;15.40;99.90;;;;;;5001613;28;21077;-81
2023/07/23 01:53:06;;;;;;;7.40;4.13;;;15.50;99.90;;;;;;5001154;28;20230;-81
2023/07/23 01:55:32;;;;;;;9.63;3.97;;;15.40;99.90;;;;;;4993068;28;20309;-82
2023/07/23 01:57:58;;;;;;;9.57;4.27;;;15.50;99.90;;;;;;5018996;28;20192;-82
2023/07/23 02:00:24;;;;;;;2.87;1.87;;;15.40;99.90;;;;;;5020484;28;20217;-81
2023/07/23 02:02:50;;;;;;;4.47;3.00;;;15.40;99.90;;;;;;5003829;28;20226;-81
2023/07/23 02:05:17;;;;;;;6.67;3.83;;;15.40;99.90;;;;;;5039606;28;20222;-81
2023/07/23 02:07:43;;;;;;;5.93;3.07;;;15.30;99.90;;;;;;5038839;28;20226;-82
2023/07/23 02:10:11;;;;;;;6.23;3.10;;;15.30;99.90;;;;;;5022317;28;20186;-80
2023/07/23 02:12:39;;;;;;;7.20;3.60;;;15.30;99.90;;;;;;5039221;28;20282;-81
2023/07/23 02:15:05;;;;;;;7.40;3.60;;;15.30;99.90;;;;;;5021821;28;20302;-81
2023/07/23 02:17:31;;;;;;;8.13;3.77;;;15.30;99.90;;;;;;5004657;28;20233;-82
2023/07/23 02:19:57;;;;;;;3.30;2.97;;;15.40;99.90;;;;;;5021650;28;21161;-81
2023/07/23 02:22:22;;;;;;;7.17;3.87;;;15.40;99.90;;;;;;5038780;28;20318;-83
2023/07/23 02:24:48;;;;;;;9.93;4.07;;;15.40;99.90;;;;;;5022295;28;20183;-81
2023/07/23 02:27:14;;;;;;;4.83;2.83;;;15.40;99.90;;;;;;5005262;28;20234;-81
2023/07/23 02:29:40;;;;;;;6.73;3.60;;;15.40;99.90;;;;;;5039085;28;20218;-81
2023/07/23 02:32:07;;;;;;;9.77;3.97;;;15.40;99.90;;;;;;5007383;28;20836;-81
2023/07/23 02:34:32;;;;;;;7.73;2.87;;;15.40;99.90;;;;;;5021004;28;20226;-81
2023/07/23 02:36:58;;;;;;;5.27;2.83;;;15.40;99.90;;;;;;5021086;28;20201;-81
2023/07/23 02:39:24;;;;;;;4.37;3.47;;;15.40;99.90;;;;;;4988219;28;20225;-81
2023/07/23 02:41:50;;;;;;;5.60;3.70;;;15.50;99.90;;;;;;5021311;28;20257;-80
2023/07/23 02:44:16;;;;;;;4.63;3.23;;;15.50;99.90;;;;;;5021186;28;20222;-81
2023/07/23 02:46:41;;;;;;;9.90;3.57;;;15.50;99.90;;;;;;5038086;28;20233;-82
2023/07/23 02:49:07;;;;;;;4.77;3.80;;;15.50;99.90;;;;;;5021283;28;20256;-81
2023/07/23 02:51:33;;;;;;;9.27;4.33;;;15.60;99.90;;;;;;5004395;28;20538;-82
2023/07/23 02:53:59;;;;;;;9.50;4.07;;;15.60;99.90;;;;;;5019367;28;20695;-81
2023/07/23 02:56:25;;;;;;;5.80;3.57;;;15.60;99.90;;;;;;5011517;28;20246;-81
2023/07/23 02:58:50;;;;;;;6.00;3.07;;;15.70;99.90;;;;;;5021686;28;20245;-83
2023/07/23 03:01:16;;;;;;;10.10;4.67;;;15.70;99.90;;;;;;4988865;28;20209;-81
2023/07/23 03:03:47;;;;;;;5.37;3.37;;;15.70;99.90;;;;;;4989587;28;20516;-81
2023/07/23 03:06:16;;;;;;;7.90;3.40;;;15.70;99.90;;;;;;4989278;28;20226;-82
2023/07/23 03:08:42;;;;;;;4.60;2.97;;;15.70;99.90;;;;;;5021988;28;20284;-81
2023/07/23 03:11:08;;;;;;;6.37;4.17;;;15.70;99.90;;;;;;5004669;28;20310;-84
2023/07/23 03:13:34;;;;;;;7.27;2.93;;;15.70;99.90;;;;;;4988556;28;20583;-81
2023/07/23 03:16:00;;;;;;;8.30;4.03;;;15.70;99.90;;;;;;4971556;28;20985;-82
2023/07/23 03:18:28;;;;;;;8.47;3.97;;;15.70;99.90;;;;;;5022315;28;20285;-81
2023/07/23 03:20:54;;;;;;;7.93;4.27;;;15.70;99.90;;;;;;5004667;28;20222;-81
2023/07/23 03:23:20;;;;;;;7.13;3.77;;;15.70;99.90;;;;;;5002929;28;20231;-84
2023/07/23 03:25:45;;;;;;;7.57;4.57;;;15.70;99.90;;;;;;5021532;28;20844;-83
2023/07/23 03:28:12;;;;;;;7.50;3.60;;;15.80;99.90;;;;;;4972199;28;20218;-84
2023/07/23 03:30:37;;;;;;;6.60;3.83;;;15.70;99.90;;;;;;5004363;28;20194;-82
2023/07/23 03:33:03;;;;;;;6.77;3.90;;;15.80;99.90;;;;;;5022444;28;20284;-82
2023/07/23 03:35:29;;;;;;;10.87;4.13;;;15.70;99.90;;;;;;5003310;28;20959;-81
2023/07/23 03:37:55;;;;;;;4.93;3.50;;;15.70;99.90;;;;;;5003009;28;20218;-82
2023/07/23 03:40:21;;;;;;;11.20;2.73;;;15.70;99.90;;;;;;4987638;28;20218;-83
2023/07/23 03:42:47;;;;;;;7.57;3.93;;;15.70;99.90;;;;;;5004824;28;20640;-84
2023/07/23 03:45:12;;;;;;;8.93;3.00;;;15.70;99.90;;;;;;5004078;28;20226;-82
2023/07/23 03:47:38;;;;;;;5.70;3.63;;;15.70;99.90;;;;;;5003023;28;20269;-82
2023/07/23 03:50:05;;;;;;;5.43;3.47;;;15.70;99.90;;;;;;4987546;28;20301;-82
2023/07/23 03:52:30;;;;;;;7.03;3.43;;;15.70;99.90;;;;;;5002456;28;20222;-82
2023/07/23 03:54:56;;;;;;;9.53;4.00;;;15.70;99.90;;;;;;5020737;28;20214;-84
2023/07/23 03:57:22;;;;;;;8.27;3.93;;;15.70;99.90;;;;;;4986161;28;20230;-81
2023/07/23 03:59:47;;;;;;;9.80;3.50;;;15.70;99.90;;;;;;4983735;28;20296;-81
2023/07/23 04:02:13;;;;;;;8.83;4.57;;;15.80;99.90;;;;;;4986183;28;20234;-82
2023/07/23 04:04:40;;;;;;;9.93;4.80;;;15.80;99.90;;;;;;5019623;28;20673;-83
2023/07/23 04:07:07;;;;;;;7.93;3.67;;;15.80;99.90;;;;;;5002372;28;20223;-82
2023/07/23 04:09:33;;;;;;;12.13;5.10;;;15.80;99.90;;;;;;5020651;28;20262;-82
2023/07/23 04:11:59;;;;;;;8.00;4.13;;;15.80;99.90;;;;;;5002897;28;20274;-82
2023/07/23 04:14:25;;;;;;;9.43;4.07;;;15.80;99.90;;;;;;5020040;28;20688;-83
2023/07/23 04:16:53;;;;;;;7.73;2.83;;;15.80;99.90;;;;;;5002318;28;20223;-81
2023/07/23 04:19:18;;;;;;;10.67;4.30;;;15.80;99.90;;;;;;5002881;28;20202;-84
2023/07/23 04:21:44;;;;;;;6.57;3.53;;;15.80;99.90;;;;;;4970884;28;20190;-85
2023/07/23 04:24:10;;;;;;;4.87;4.30;;;15.80;99.90;;;;;;5003675;28;20218;-83
2023/07/23 04:26:35;;;;;;;4.53;2.53;;;15.80;99.90;;;;;;5002488;28;20701;-83
2023/07/23 04:29:01;;;;;;;11.03;3.70;;;15.80;99.90;;;;;;5003462;28;20246;-82
2023/07/23 04:31:27;;;;;;;4.77;4.23;;;15.80;99.90;;;;;;4986970;28;20218;-83
2023/07/23 04:33:56;;;;;;;3.77;3.10;;;15.80;99.90;;;;;;5003544;28;20679;-84
2023/07/23 04:36:21;;;;;;;6.00;3.17;;;15.80;99.90;;;;;;5020351;28;20240;-84
2023/07/23 04:38:48;;;;;;;6.57;2.67;;;15.70;99.90;;;;;;5002331;28;20225;-83
2023/07/23 04:41:14;;;;;;;9.10;4.60;;;15.70;99.90;;;;;;5020333;28;20219;-85
2023/07/23 04:43:41;;;;;;;6.53;3.47;;;15.80;99.90;;;;;;4970363;28;20229;-82
2023/07/23 04:46:07;;;;;;;6.40;3.03;;;15.80;99.90;;;;;;5001862;28;20578;-84
2023/07/23 04:48:33;;;;;;;4.67;3.40;;;15.70;99.90;;;;;;5002121;28;20313;-84
2023/07/23 04:51:05;;;;;;;5.63;3.47;;;15.70;99.90;;;;;;5001148;28;20227;-83
2023/07/23 04:53:31;;;;;;;4.47;2.93;;;15.80;99.90;;;;;;5020037;28;20225;-84
2023/07/23 04:55:59;;;;;;;6.73;3.80;;;15.80;99.90;;;;;;5011601;28;20234;-84
2023/07/23 04:58:25;;;;;;;6.97;4.07;;;15.80;99.90;;;;;;5038503;28;20309;-85
2023/07/23 05:00:52;;;;;;;4.57;3.33;;;15.80;99.90;;;;;;5022556;28;20675;-86
2023/07/23 05:03:18;;;;;;;6.07;3.40;;;15.70;99.90;;;;;;5020744;28;20213;-83
2023/07/23 05:05:49;;;;;;;7.13;4.83;;;15.70;99.90;;;;;;5021465;28;20689;-85
2023/07/23 05:08:19;;;;;;;6.27;3.43;;;15.70;99.90;;;;;;5039282;28;21245;-84
2023/07/23 05:10:45;;;;;;;8.50;3.47;;;15.60;99.90;;;;;;5022148;28;20218;-84
2023/07/23 05:13:12;;;;;;;3.60;3.03;;;15.60;99.90;;;;;;5020490;28;20200;-86
2023/07/23 05:15:38;;;;;;;4.23;3.07;;;15.50;99.90;;;;;;5021934;28;20181;-87
2023/07/23 05:18:04;;;;;;;5.03;3.07;;;15.50;99.90;;;;;;5020303;28;20233;-83
2023/07/23 05:20:30;;;;;;;4.53;3.63;;;15.50;99.90;;;;;;5003905;28;21045;-83
2023/07/23 05:22:56;;;;;;;5.00;3.23;;;15.50;99.90;;;;;;5005634;28;20229;-83
2023/07/23 05:25:22;;;;;;;4.97;3.33;;;15.50;99.90;;;;;;5021197;28;20358;-83
2023/07/23 05:27:49;;;;;;;3.90;2.70;;;15.50;99.90;;;;;;5022508;28;20210;-84
2023/07/23 05:30:16;;;;;;;6.03;3.10;;;15.40;99.90;;;;;;5038926;28;20284;-83
2023/07/23 05:32:42;;;;;;;5.30;3.47;;;15.50;99.90;;;;;;5004219;28;20567;-83
2023/07/23 05:35:08;;;;;;;5.73;3.23;;;15.50;99.90;;;;;;5021227;28;20224;-85
2023/07/23 05:37:34;;;;;;;6.47;4.17;;;15.40;99.90;;;;;;5039557;28;20225;-83
2023/07/23 05:40:00;;;;;;;5.07;3.33;;;15.50;99.90;;;;;;5005359;28;20188;-84
2023/07/23 05:42:25;;;;;;;6.63;2.77;;;15.40;99.90;;;;;;5022565;28;20280;-83
2023/07/23 05:44:51;;;;;;;4.40;3.37;;;15.40;99.90;;;;;;5022474;28;20741;-84
2023/07/23 05:47:18;;;;;;;10.17;3.77;;;15.40;99.90;;;;;;5022255;28;20244;-84
2023/07/23 05:49:43;;;;;;;4.93;3.87;;;15.50;99.90;;;;;;5022132;28;20336;-82
2023/07/23 05:52:09;;;;;;;4.23;3.07;;;15.40;99.90;;;;;;5040810;28;20926;-83
2023/07/23 05:54:35;;;;;;;5.17;3.27;;;15.40;99.90;;;;;;5023954;28;20202;-82
2023/07/23 05:57:01;;;;;;;5.27;3.67;;;15.40;99.90;;;;;;5006085;28;20233;-83
2023/07/23 05:59:27;;;;;;;4.97;3.07;;;15.50;99.90;;;;;;5023137;28;20242;-85
2023/07/23 06:01:52;;;;;;;4.10;2.47;;;15.40;99.90;;;;;;5020783;28;20233;-83
2023/07/23 06:04:20;;;;;;;5.77;3.03;;;15.40;99.90;;;;;;5041021;28;20181;-84
2023/07/23 06:06:46;;;;;;;4.07;3.27;;;15.40;99.90;;;;;;5006400;28;20194;-83
2023/07/23 06:09:12;;;;;;;6.43;3.27;;;15.50;99.90;;;;;;5005892;28;20222;-82
2023/07/23 06:11:38;;;;;;;6.23;3.70;;;15.50;99.90;;;;;;5039403;28;20588;-83
2023/07/23 06:14:03;;;;;;;3.97;3.20;;;15.50;99.90;;;;;;5005640;28;20679;-83
2023/07/23 06:16:30;;;;;;;6.57;4.47;;;15.50;99.90;;;;;;5021542;28;20705;-83
2023/07/23 06:18:57;;;;;;;6.53;3.83;;;15.50;99.90;;;;;;5039569;28;20273;-85
2023/07/23 06:21:23;;;;;;;7.23;4.47;;;15.50;99.90;;;;;;5022063;28;20217;-83
2023/07/23 06:23:48;;;;;;;6.57;3.57;;;15.50;99.90;;;;;;5021677;28;20683;-83
2023/07/23 06:26:14;;;;;;;5.17;3.47;;;15.60;99.90;;;;;;5022663;28;20221;-82
2023/07/23 06:28:40;;;;;;;5.13;3.53;;;15.50;99.90;;;;;;5021304;28;20226;-82
2023/07/23 06:31:06;;;;;;;3.83;2.97;;;15.50;99.90;;;;;;5007937;28;21043;-83
2023/07/23 06:33:32;;;;;;;8.17;3.20;;;15.60;99.90;;;;;;5044504;28;20190;-83
2023/07/23 06:35:57;;;;;;;6.53;4.07;;;15.60;99.90;;;;;;5042002;28;20276;-83
2023/07/23 06:38:24;;;;;;;5.00;3.37;;;15.70;99.90;;;;;;5025673;28;20613;-81
2023/07/23 06:40:54;;;;;;;6.27;4.07;;;15.70;99.90;;;;;;5008922;28;20247;-83
2023/07/23 06:43:20;;;;;;;9.63;5.53;;;15.80;99.90;;;;;;5011695;28;20395;-81
2023/07/23 06:45:47;;;;;;;5.90;4.20;;;15.80;99.90;;;;;;5042447;28;20194;-82
2023/07/23 06:48:14;;;;;;;6.27;3.60;;;15.80;99.90;;;;;;5043038;28;20229;-82
2023/07/23 06:50:40;;;;;;;6.87;4.00;;;15.80;99.90;;;;;;5025577;28;20784;-81
2023/07/23 06:53:06;;;;;;;6.73;3.80;;;15.80;99.90;;;;;;5015580;28;21016;-82
2023/07/23 06:55:55;;;;;;;10.33;4.13;;;15.80;99.90;;;;;;5020101;28;20301;-83
2023/07/23 06:58:21;;;;;;;5.80;4.00;;;15.90;99.90;;;;;;5016936;28;20224;-83
2023/07/23 07:00:47;;;;;;;7.43;3.80;;;15.90;99.90;;;;;;4991385;28;20217;-81
2023/07/23 07:03:13;;;;;;;7.13;3.87;;;16.00;99.90;;;;;;4991936;28;20733;-83
2023/07/23 07:05:38;;;;;;;6.70;4.90;;;16.00;99.90;;;;;;5022032;28;20953;-81
2023/07/23 07:08:04;;;;;;;5.00;3.77;;;16.00;99.90;;;;;;4992042;28;20341;-83
2023/07/23 07:10:30;;;;;;;15.83;5.53;;;16.10;99.90;;;;;;4990471;28;20222;-83
2023/07/23 07:12:56;;;;;;;6.87;3.93;;;16.10;99.90;;;;;;5008994;28;20190;-83
2023/07/23 07:15:22;;;;;;;5.30;4.20;;;16.20;99.90;;;;;;5024352;28;20218;-83
2023/07/23 07:17:47;;;;;;;6.13;4.57;;;16.20;99.90;;;;;;5008938;28;20222;-84
2023/07/23 07:20:13;;;;;;;6.63;4.10;;;16.30;99.90;;;;;;5025086;28;20241;-83
2023/07/23 07:22:39;;;;;;;4.60;3.73;;;16.30;99.90;;;;;;5043160;28;20221;-83
2023/07/23 07:25:05;;;;;;;9.10;4.50;;;16.30;99.90;;;;;;5023698;28;20190;-83
2023/07/23 07:27:33;;;;;;;7.50;5.10;;;16.40;99.90;;;;;;5007106;28;20218;-84
2023/07/23 07:29:59;;;;;;;4.10;2.80;;;16.50;99.90;;;;;;5024305;28;20275;-82
2023/07/23 07:32:27;;;;;;;7.37;4.70;;;16.50;99.90;;;;;;5021462;28;20275;-83
2023/07/23 07:34:53;;;;;;;7.73;4.57;;;16.60;99.90;;;;;;5022738;28;20217;-83
2023/07/23 07:37:21;;;;;;;5.50;3.50;;;16.70;99.90;;;;;;5006967;28;20200;-83
2023/07/23 07:39:47;;;;;;;4.80;3.57;;;16.70;99.90;;;;;;5008110;28;20264;-83
2023/07/23 07:42:15;;;;;;;5.57;4.00;;;16.70;99.90;;;;;;5008528;28;20300;-82
2023/07/23 07:44:47;;;;;;;9.80;5.33;;;16.70;99.90;;;;;;5009352;28;20214;-83
2023/07/23 07:47:31;;;;;;;6.90;3.73;;;16.70;99.90;;;;;;5024633;28;20295;-83
2023/07/23 07:50:07;;;;;;;7.87;4.27;;;16.70;99.90;;;;;;5019813;28;20218;-86
2023/07/23 07:52:36;;;;;;;7.33;4.00;;;16.70;99.90;;;;;;5042866;28;20229;-82
2023/07/23 07:55:02;;;;;;;8.13;4.53;;;16.70;99.90;;;;;;5007447;28;20272;-84
2023/07/23 07:57:28;;;;;;;10.63;5.87;;;16.70;99.90;;;;;;5002271;28;21142;-83
2023/07/23 07:59:54;;;;;;;9.77;6.33;;;16.70;99.90;;;;;;5022411;28;20215;-83
2023/07/23 08:02:21;;;;;;;8.80;6.13;;;16.70;99.90;;;;;;5021444;28;20835;-82
2023/07/23 08:04:50;;;;;;;8.93;5.07;;;16.70;99.90;;;;;;5023443;28;20223;-82
2023/07/23 08:07:19;;;;;;;9.27;6.17;;;16.80;99.90;;;;;;4993759;28;20230;-83
2023/07/23 08:09:46;;;;;;;6.50;4.43;;;16.80;99.90;;;;;;5013106;28;21110;-85
2023/07/23 08:12:18;;;;;;;8.93;5.77;;;16.90;99.90;;;;;;5010133;28;20309;-83
2023/07/23 08:14:45;;;;;;;11.47;6.67;;;16.90;99.90;;;;;;5022441;28;20745;-84
2023/07/23 08:17:14;;;;;;;9.27;5.70;;;17.00;99.90;;;;;;5004941;28;20276;-83
2023/07/23 08:19:40;;;;;;;5.83;4.30;;;16.90;99.90;;;;;;5006122;28;20214;-83
2023/07/23 08:22:11;;;;;;;6.70;4.57;;;17.00;99.90;;;;;;5005883;28;20193;-83
2023/07/23 08:24:46;;;;;;;10.63;6.30;;;17.10;99.90;;;;;;5004572;28;20214;-82
2023/07/23 08:27:21;;;;;;;9.13;4.93;;;17.10;99.90;;;;;;5021353;28;20230;-82
2023/07/23 08:29:57;;;;;;;7.57;6.03;;;17.00;99.90;;;;;;5007065;28;20293;-83
2023/07/23 08:32:35;;;;;;;8.90;6.03;;;17.00;99.90;;;;;;5021658;28;20215;-81
2023/07/23 08:35:02;;;;;;;6.07;5.33;;;17.00;99.90;;;;;;5019005;28;20695;-81
2023/07/23 08:37:29;;;;;;;8.87;6.33;;;17.10;99.90;;;;;;5002562;28;20593;-81
2023/07/23 08:39:55;;;;;;;8.53;5.90;;;17.20;99.90;;;;;;5020552;28;20655;-81
2023/07/23 08:42:51;;;;;;;8.50;5.80;;;17.30;99.90;;;;;;5003518;28;20341;-82
2023/07/23 08:45:53;;;;;;;9.33;5.27;;;17.30;99.90;;;;;;5019969;28;20226;-83
2023/07/23 08:48:20;;;;;;;6.47;4.90;;;17.30;99.90;;;;;;5000646;28;20242;-82
2023/07/23 08:50:50;;;;;;;6.27;4.37;;;17.40;99.90;;;;;;5018130;28;20562;-81
2023/07/23 08:53:23;;;;;;;5.90;4.53;;;17.40;99.90;;;;;;5019170;28;20226;-82
2023/07/23 08:55:51;;;;;;;6.33;4.00;;;17.50;99.90;;;;;;5025027;28;20238;-83
2023/07/23 08:58:19;;;;;;;5.63;4.33;;;17.50;99.90;;;;;;5005303;28;20187;-82
2023/07/23 09:00:48;;;;;;;4.40;4.00;;;17.60;99.90;;;;;;5009472;28;20190;-86
2023/07/23 09:03:20;;;;;;;6.87;4.13;;;17.50;99.90;;;;;;5022185;28;20253;-82
2023/07/23 09:05:46;;;;;;;8.53;3.57;;;17.50;99.90;;;;;;5040065;28;20265;-82
2023/07/23 09:08:12;;;;;;;6.77;3.67;;;17.50;99.90;;;;;;5039504;28;20336;-83
2023/07/23 09:10:41;;;;;;;5.37;4.37;;;17.40;99.90;;;;;;5011074;28;20257;-83
2023/07/23 09:13:16;;;;;;;6.47;3.83;;;17.50;99.90;;;;;;5042440;28;20202;-86
2023/07/23 09:15:54;;;;;;;4.67;3.53;;;17.60;99.90;;;;;;5022674;28;20179;-82
2023/07/23 09:18:20;;;;;;;2.63;2.30;;;17.70;99.90;;;;;;5041143;28;20276;-84
2023/07/23 09:20:58;;;;;;;8.30;5.67;;;17.60;99.90;;;;;;5023949;28;20232;-84
2023/07/23 09:23:35;;;;;;;7.60;5.53;;;17.60;99.90;;;;;;5040602;28;20214;-83
2023/07/23 09:26:03;;;;;;;8.90;5.60;;;17.70;99.90;;;;;;5025303;28;20255;-84
2023/07/23 09:28:37;;;;;;;8.83;4.87;;;17.60;99.90;;;;;;4994748;28;20317;-83
2023/07/23 09:31:06;;;;;;;7.77;4.47;;;17.60;99.90;;;;;;5021525;28;20273;-85
2023/07/23 09:33:35;;;;;;;7.50;5.97;;;17.70;99.90;;;;;;4990003;28;20200;-83
2023/07/23 09:36:03;;;;;;;8.37;5.80;;;17.70;99.90;;;;;;5020158;28;20241;-84
2023/07/23 09:38:34;;;;;;;11.73;6.57;;;17.80;99.90;;;;;;5022459;28;20590;-83
2023/07/23 09:41:06;;;;;;;10.67;6.47;;;17.90;99.90;;;;;;5005827;28;20347;-84
2023/07/23 09:43:37;;;;;;;16.40;7.13;;;17.80;99.90;;;;;;5014644;28;20251;-86
2023/07/23 09:46:19;;;;;;;11.43;6.93;;;17.80;99.90;;;;;;5022777;28;20227;-85
2023/07/23 09:48:45;;;;;;;12.37;7.47;;;18.00;99.90;;;;;;5027879;28;20838;-84
2023/07/23 09:51:17;;;;;;;14.67;8.57;;;18.00;99.90;;;;;;5024907;28;20218;-83
2023/07/23 09:53:46;;;;;;;13.60;9.23;;;18.10;99.90;;;;;;5024967;28;20323;-83
2023/07/23 09:56:22;;;;;;;10.80;6.97;;;18.10;99.90;;;;;;5016423;28;20867;-85
2023/07/23 09:58:54;;;;;;;12.67;8.23;;;18.10;99.90;;;;;;5023647;28;20226;-83
2023/07/23 10:01:27;;;;;;;12.87;6.77;;;18.20;99.90;;;;;;5004678;28;20179;-85
2023/07/23 10:04:13;;;;;;;11.87;6.80;;;18.20;99.90;;;;;;5009178;28;20190;-87
2023/07/23 10:06:42;;;;;;;12.90;6.17;;;18.20;99.90;;;;;;5010126;28;20262;-84
2023/07/23 10:09:11;;;;;;;13.70;7.97;;;18.00;99.90;;;;;;4988459;28;20241;-83
2023/07/23 10:11:56;;;;;;;;;;;;;;;;;;;;;
2023/07/23 10:14:30;;;;;;;12.60;7.67;;;17.90;99.90;;;;;;5026475;28;20310;-84
2023/07/23 10:16:57;;;;;;;13.03;8.20;;;17.90;99.90;;;;;;4993486;28;20305;-84
2023/07/23 10:19:39;;;;;;;10.07;7.00;;;18.00;99.90;;;;;;5007069;28;20596;-85
2023/07/23 10:22:07;;;;;;;9.93;6.20;;;17.90;99.90;;;;;;4999926;28;20189;-84
2023/07/23 10:24:40;;;;;;;10.33;6.70;;;18.00;99.90;;;;;;5009347;28;20273;-84
2023/07/23 10:27:14;;;;;;;10.97;6.10;;;18.00;99.90;;;;;;5005393;28;20215;-86
2023/07/23 10:30:01;;;;;;;13.17;7.57;;;18.00;99.90;;;;;;5000204;28;20714;-83
2023/07/23 10:32:35;;;;;;;10.67;6.33;;;17.90;99.90;;;;;;5004724;28;20254;-86
2023/07/23 10:35:02;;;;;;;13.10;7.40;;;18.00;99.90;;;;;;5007729;28;20265;-84
2023/07/23 10:37:31;;;;;;;13.23;7.73;;;18.00;99.90;;;;;;5008459;28;20762;-87
2023/07/23 10:40:44;;;;;;;10.60;7.13;;;18.00;99.90;;;;;;5010837;28;20180;-84
2023/07/23 10:43:22;;;;;;;12.80;6.77;;;18.00;99.90;;;;;;5016697;28;20179;-84
2023/07/23 10:46:09;;;;;;;14.27;6.20;;;18.00;99.90;;;;;;5008897;28;20249;-84
2023/07/23 10:48:49;;;;;;;10.10;6.30;;;18.10;99.90;;;;;;5024617;28;20739;-83
2023/07/23 10:51:20;;;;;;;9.90;6.17;;;18.10;99.90;;;;;;5009735;28;21017;-87
2023/07/23 10:54:02;;;;;;;13.60;8.53;;;18.20;99.90;;;;;;5026397;28;20346;-87
2023/07/23 10:56:51;;;;;;;17.23;9.20;;;18.30;99.90;;;;;;5003640;28;20246;-87
2023/07/23 10:59:38;;;;;;;12.47;9.57;;;18.50;99.90;;;;;;5030076;28;20237;-88
2023/07/23 11:06:36;;;;;;;9.57;6.03;;;18.40;99.90;;;;;;4874803;29;20223;-90
2023/07/23 11:09:33;;;;;;;7.83;4.77;;;18.20;99.90;;;;;;4884042;29;20708;-89
2023/07/23 11:12:05;;;;;;;13.67;9.40;;;18.20;99.90;;;;;;4890810;29;20219;-89
2023/07/23 11:15:07;;;;;;;11.50;7.53;;;18.30;99.90;;;;;;4918807;28;20225;-90
2023/07/23 11:17:44;;;;;;;11.07;7.63;;;18.40;99.90;;;;;;4921130;29;20268;-88
2023/07/23 11:20:26;;;;;;;14.57;7.10;;;18.30;99.90;;;;;;4945359;28;20283;-89
2023/07/23 11:23:53;;;;;;;;;;;;;;;;;;;;;
2023/07/23 11:27:27;;;;;;;15.00;8.50;;;18.10;99.90;;;;;;4954380;28;20216;-89
2023/07/23 11:30:19;;;;;;;11.80;7.03;;;18.10;99.90;;;;;;4934590;28;20236;-87
2023/07/23 11:33:28;;;;;;;15.13;8.77;;;18.00;99.90;;;;;;4960019;28;20228;-89
2023/07/23 11:36:03;;;;;;;11.07;6.37;;;18.00;99.90;;;;;;4972867;28;20223;-89
2023/07/23 11:39:39;;;;;;;15.97;6.57;;;17.90;99.90;;;;;;4953639;28;20691;-90
2023/07/23 11:43:19;;;;;;;;;;;;;;;;;;;;;
2023/07/23 11:46:43;;;;;;;8.70;6.77;;;18.00;99.90;;;;;;4884447;29;20223;-88
2023/07/23 11:49:40;;;;;;;9.10;6.47;;;18.00;99.90;;;;;;4973781;28;20237;-89
2023/07/23 11:53:00;;;;;;;14.37;7.60;;;18.10;99.90;;;;;;5020501;28;20253;-88
2023/07/23 11:55:31;;;;;;;15.33;7.67;;;18.30;99.90;;;;;;5010426;28;20227;-88
2023/07/23 12:01:45;;;;;;;14.40;7.50;;;18.40;99.90;;;;;;4991494;28;20223;-87
2023/07/23 12:04:10;;;;;;;11.27;6.47;;;18.70;99.90;;;;;;5027523;28;20186;-90
2023/07/23 12:06:40;;;;;;;10.33;6.13;;;18.70;99.90;;;;;;5027865;28;20194;-88
2023/07/23 12:09:20;;;;;;;8.77;4.53;;;18.60;99.90;;;;;;5004016;28;20340;-90
2023/07/23 12:15:06;;;;;;;4.30;3.40;;;18.70;99.90;;;;;;4983121;28;20218;-89
2023/07/23 12:17:53;;;;;;;5.93;3.87;;;18.80;99.90;;;;;;5019268;28;20213;-89
2023/07/23 12:20:37;;;;;;;5.10;4.13;;;19.10;99.90;;;;;;5028610;28;20240;-88
2023/07/23 12:23:03;;;;;;;4.77;3.63;;;19.40;99.90;;;;;;5043538;28;20213;-89
2023/07/23 12:25:42;;;;;;;8.73;4.43;;;19.70;99.90;;;;;;5004406;28;20317;-86
2023/07/23 12:28:08;;;;;;;6.07;4.23;;;19.80;99.90;;;;;;5026282;28;20368;-89
2023/07/23 12:30:40;;;;;;;7.93;4.63;;;19.70;99.90;;;;;;5045253;28;20668;-89
2023/07/23 12:33:11;;;;;;;6.77;4.27;;;19.70;99.90;;;;;;5035761;28;20210;-87
2023/07/23 12:36:29;;;;;;;8.83;5.27;;;19.70;99.90;;;;;;5026881;28;20317;-87
2023/07/23 12:39:18;;;;;;;9.83;3.57;;;20.00;99.90;;;;;;5004671;28;20249;-88
2023/07/23 12:41:44;;;;;;;7.53;4.20;;;20.00;99.90;;;;;;5027112;28;20263;-89
2023/07/23 12:44:11;;;;;;;5.63;3.63;;;19.80;99.90;;;;;;5023375;28;20230;-88
2023/07/23 12:46:58;;;;;;;5.87;2.37;;;19.90;99.90;;;;;;5040435;28;20226;-87
2023/07/23 12:49:36;;;;;;;4.80;2.57;;;19.80;99.90;;;;;;5025942;28;20849;-88
2023/07/23 12:52:36;;;;;;;6.50;3.20;;;19.60;99.90;;;;;;5018163;28;20225;-87
2023/07/23 12:55:19;;;;;;;10.90;3.40;;;19.60;99.90;;;;;;5020120;28;20209;-87
2023/07/23 13:01:05;;;;;;;4.43;3.17;;;20.10;99.90;;;;;;5029766;28;20289;-87
2023/07/23 13:03:33;;;;;;;4.37;2.50;;;20.40;99.90;;;;;;5007600;28;20275;-88
2023/07/23 13:06:08;;;;;;;6.30;2.73;;;20.60;99.90;;;;;;5018975;28;20252;-89
2023/07/23 13:08:37;;;;;;;6.30;2.40;;;20.60;99.90;;;;;;5014106;28;20237;-87
2023/07/23 13:11:03;;;;;;;3.40;2.20;;;20.70;99.90;;;;;;5032832;28;20230;-86
2023/07/23 13:13:37;;;;;;;3.07;2.00;;;20.60;99.90;;;;;;4997522;28;20700;-87
2023/07/23 13:16:11;;;;;;;5.47;2.03;;;20.60;99.90;;;;;;5039115;28;20340;-88
2023/07/23 13:18:37;;;;;;;5.47;2.43;;;20.40;99.90;;;;;;5025410;28;20214;-87
2023/07/23 13:21:08;;;;;;;9.00;2.03;;;20.40;99.90;;;;;;5013956;28;20230;-88